Time;durP1;ratioP1;P1;durP2;ratioP2;P2;SDS_P1;SDS_P2;PMS_P1;PMS_P2;Temp;Humidity;BMP_temperature;BMP_pressure;BME280_temperature;BME280_humidity;BME280_pressure;Samples;Min_cycle;Max_cycle;Signal;HPM_P1;HPM_P2
2023/08/22 00:01:17;;;;;;;9.32;5.30;;;;;;;;;;5016386;28;20065;-61
2023/08/22 00:03:43;;;;;;;8.82;5.22;;;;;;;;;;5031930;28;20081;-61
2023/08/22 00:06:09;;;;;;;8.05;5.18;;;;;;;;;;5032492;28;20045;-62
2023/08/22 00:08:35;;;;;;;7.38;5.25;;;;;;;;;;5024522;28;20107;-62
2023/08/22 00:11:01;;;;;;;10.30;5.57;;;;;;;;;;5031897;28;20049;-62
2023/08/22 00:13:27;;;;;;;6.93;5.35;;;;;;;;;;5031040;28;20046;-61
2023/08/22 00:15:58;;;;;;;10.25;6.20;;;;;;;;;;5052521;28;20484;-62
2023/08/22 00:18:24;;;;;;;8.77;5.00;;;;;;;;;;5015187;28;20489;-61
2023/08/22 00:20:50;;;;;;;10.55;5.72;;;;;;;;;;5032809;28;20046;-62
2023/08/22 00:23:17;;;;;;;6.40;5.03;;;;;;;;;;5028900;28;20535;-62
2023/08/22 00:25:43;;;;;;;8.18;4.90;;;;;;;;;;5004849;28;20050;-63
2023/08/22 00:28:09;;;;;;;10.40;6.28;;;;;;;;;;4995733;28;20139;-62
2023/08/22 00:30:35;;;;;;;9.27;5.28;;;;;;;;;;5012618;28;20057;-62
2023/08/22 00:33:01;;;;;;;6.82;4.97;;;;;;;;;;5021819;28;20045;-62
2023/08/22 00:35:28;;;;;;;11.38;5.45;;;;;;;;;;5031533;28;20068;-62
2023/08/22 00:37:54;;;;;;;10.75;5.55;;;;;;;;;;5030156;28;20404;-62
2023/08/22 00:40:21;;;;;;;8.98;5.50;;;;;;;;;;5037442;28;20590;-62
2023/08/22 00:42:47;;;;;;;11.10;6.18;;;;;;;;;;5019152;28;20128;-62
2023/08/22 00:45:13;;;;;;;11.20;5.82;;;;;;;;;;5030378;28;20493;-61
2023/08/22 00:47:39;;;;;;;7.65;5.57;;;;;;;;;;5017207;28;20045;-61
2023/08/22 00:50:05;;;;;;;12.98;5.82;;;;;;;;;;5031935;28;20053;-61
2023/08/22 00:52:32;;;;;;;9.40;6.03;;;;;;;;;;5028624;28;20037;-62
2023/08/22 00:54:58;;;;;;;9.38;6.13;;;;;;;;;;5031518;28;20042;-62
2023/08/22 00:57:24;;;;;;;11.77;5.80;;;;;;;;;;5012664;28;20052;-61
2023/08/22 00:59:50;;;;;;;11.57;6.82;;;;;;;;;;5031328;28;20563;-62
2023/08/22 01:02:16;;;;;;;11.95;6.30;;;;;;;;;;5031053;28;20115;-62
2023/08/22 01:04:43;;;;;;;14.60;6.15;;;;;;;;;;5031726;28;20119;-62
2023/08/22 01:07:15;;;;;;;13.82;6.35;;;;;;;;;;5026148;28;20505;-61
2023/08/22 01:09:45;;;;;;;10.52;6.05;;;;;;;;;;5035482;28;20061;-62
2023/08/22 01:12:22;;;;;;;10.63;6.40;;;;;;;;;;5030786;28;20056;-62
2023/08/22 01:14:58;;;;;;;18.13;6.70;;;;;;;;;;5011997;28;20053;-62
2023/08/22 01:17:24;;;;;;;13.02;6.07;;;;;;;;;;5027786;28;20055;-62
2023/08/22 01:19:50;;;;;;;15.48;6.60;;;;;;;;;;5032624;28;20095;-62
2023/08/22 01:22:17;;;;;;;12.52;6.18;;;;;;;;;;5025272;28;20045;-62
2023/08/22 01:24:43;;;;;;;8.48;5.70;;;;;;;;;;5011034;28;20046;-61
2023/08/22 01:27:11;;;;;;;9.93;6.15;;;;;;;;;;5022355;28;20072;-61
2023/08/22 01:29:45;;;;;;;11.50;6.28;;;;;;;;;;5031562;28;20108;-62
2023/08/22 01:32:23;;;;;;;11.40;6.65;;;;;;;;;;5031787;28;20044;-62
2023/08/22 01:34:51;;;;;;;12.82;6.65;;;;;;;;;;5052487;28;20041;-61
2023/08/22 01:37:18;;;;;;;11.35;6.55;;;;;;;;;;5028899;28;20563;-63
2023/08/22 01:39:45;;;;;;;18.42;6.50;;;;;;;;;;5041159;28;20037;-62
2023/08/22 01:42:11;;;;;;;11.20;6.18;;;;;;;;;;5037291;28;20523;-62
2023/08/22 01:44:37;;;;;;;10.32;6.13;;;;;;;;;;5030604;28;20067;-62
2023/08/22 01:47:03;;;;;;;12.10;6.47;;;;;;;;;;5029960;28;20052;-62
2023/08/22 01:49:30;;;;;;;8.85;6.28;;;;;;;;;;5020913;28;20057;-61
2023/08/22 01:51:58;;;;;;;12.85;6.40;;;;;;;;;;5025275;28;20484;-62
2023/08/22 01:54:24;;;;;;;10.70;6.47;;;;;;;;;;5009184;28;20072;-62
2023/08/22 01:56:50;;;;;;;15.30;7.65;;;;;;;;;;5029437;28;20132;-62
2023/08/22 01:59:16;;;;;;;13.10;7.03;;;;;;;;;;5012995;28;20044;-62
2023/08/22 02:01:42;;;;;;;13.15;7.65;;;;;;;;;;5028676;28;20095;-61
2023/08/22 02:04:08;;;;;;;11.38;7.40;;;;;;;;;;5028228;28;20050;-62
2023/08/22 02:06:34;;;;;;;13.35;6.93;;;;;;;;;;5030991;28;20064;-62
2023/08/22 02:09:00;;;;;;;15.60;6.63;;;;;;;;;;5033125;28;20044;-62
2023/08/22 02:11:26;;;;;;;14.73;7.65;;;;;;;;;;5050637;28;20048;-61
2023/08/22 02:13:52;;;;;;;11.25;7.07;;;;;;;;;;5017521;28;20160;-61
2023/08/22 02:16:18;;;;;;;16.98;8.95;;;;;;;;;;5028580;28;20049;-62
2023/08/22 02:18:45;;;;;;;12.20;7.70;;;;;;;;;;5019419;28;20061;-62
2023/08/22 02:21:11;;;;;;;12.27;7.55;;;;;;;;;;5026876;28;20057;-62
2023/08/22 02:23:37;;;;;;;12.73;7.88;;;;;;;;;;5027437;28;20074;-62
2023/08/22 02:26:03;;;;;;;15.95;7.43;;;;;;;;;;5023852;28;20476;-64
2023/08/22 02:28:29;;;;;;;18.30;8.55;;;;;;;;;;5010456;28;20575;-67
2023/08/22 02:30:55;;;;;;;12.45;8.25;;;;;;;;;;5014568;28;20057;-62
2023/08/22 02:33:22;;;;;;;13.00;8.50;;;;;;;;;;5012710;28;20297;-63
2023/08/22 02:35:48;;;;;;;15.18;8.35;;;;;;;;;;5028007;28;20046;-62
2023/08/22 02:38:14;;;;;;;13.45;8.50;;;;;;;;;;5033907;28;20129;-64
2023/08/22 02:40:40;;;;;;;14.20;8.57;;;;;;;;;;5043558;28;20049;-62
2023/08/22 02:43:06;;;;;;;18.67;9.93;;;;;;;;;;5030098;28;20050;-62
2023/08/22 02:45:32;;;;;;;14.75;7.65;;;;;;;;;;5013176;28;20145;-62
2023/08/22 02:47:58;;;;;;;13.38;8.40;;;;;;;;;;5029782;28;20045;-62
2023/08/22 02:50:24;;;;;;;14.25;8.52;;;;;;;;;;5029901;28;20053;-62
2023/08/22 02:52:51;;;;;;;12.93;7.43;;;;;;;;;;5014871;28;20512;-62
2023/08/22 02:55:17;;;;;;;10.70;7.85;;;;;;;;;;5010989;28;20129;-62
2023/08/22 02:57:44;;;;;;;17.05;8.55;;;;;;;;;;5021879;28;20477;-62
2023/08/22 03:00:11;;;;;;;11.48;7.63;;;;;;;;;;5016445;28;20133;-62
2023/08/22 03:02:37;;;;;;;11.45;8.50;;;;;;;;;;5017282;28;20132;-61
2023/08/22 03:05:07;;;;;;;12.32;7.97;;;;;;;;;;5030156;28;20045;-62
2023/08/22 03:07:33;;;;;;;14.77;8.10;;;;;;;;;;5033642;28;20061;-62
2023/08/22 03:09:59;;;;;;;12.50;7.65;;;;;;;;;;5033334;28;20548;-62
2023/08/22 03:12:25;;;;;;;16.90;9.18;;;;;;;;;;5032761;28;20162;-62
2023/08/22 03:14:51;;;;;;;11.75;8.13;;;;;;;;;;5032958;28;20136;-62
2023/08/22 03:17:17;;;;;;;12.18;8.20;;;;;;;;;;5030648;28;20515;-62
2023/08/22 03:19:43;;;;;;;9.68;7.78;;;;;;;;;;5033953;28;20053;-61
2023/08/22 03:22:09;;;;;;;14.80;9.35;;;;;;;;;;5016422;28;20056;-64
2023/08/22 03:24:35;;;;;;;13.70;8.68;;;;;;;;;;5030968;28;20484;-62
2023/08/22 03:27:01;;;;;;;11.43;7.45;;;;;;;;;;5033677;28;20045;-62
2023/08/22 03:29:28;;;;;;;15.75;8.82;;;;;;;;;;5019657;28;20515;-62
2023/08/22 03:31:54;;;;;;;19.55;9.65;;;;;;;;;;5019701;28;20050;-61
2023/08/22 03:34:20;;;;;;;12.98;9.63;;;;;;;;;;5027168;28;20055;-62
2023/08/22 03:36:46;;;;;;;17.90;11.38;;;;;;;;;;5015626;28;20493;-62
2023/08/22 03:39:12;;;;;;;17.92;9.25;;;;;;;;;;5029269;28;20095;-62
2023/08/22 03:41:38;;;;;;;17.05;8.85;;;;;;;;;;5032782;28;20374;-61
2023/08/22 03:44:04;;;;;;;16.25;8.93;;;;;;;;;;5030739;28;20049;-62
2023/08/22 03:46:30;;;;;;;14.95;9.25;;;;;;;;;;5029843;28;20088;-62
2023/08/22 03:48:56;;;;;;;14.80;9.65;;;;;;;;;;5019347;28;20382;-62
2023/08/22 03:51:22;;;;;;;16.42;10.65;;;;;;;;;;5031402;28;20060;-62
2023/08/22 03:53:49;;;;;;;19.58;10.85;;;;;;;;;;5029569;28;20095;-61
2023/08/22 03:56:15;;;;;;;18.90;9.98;;;;;;;;;;5032684;28;20055;-62
2023/08/22 03:58:41;;;;;;;15.98;9.60;;;;;;;;;;5033543;28;20045;-63
2023/08/22 04:01:07;;;;;;;12.68;9.27;;;;;;;;;;5031797;28;20132;-62
2023/08/22 04:03:34;;;;;;;13.93;9.20;;;;;;;;;;5025864;28;20461;-62
2023/08/22 04:06:00;;;;;;;15.60;9.77;;;;;;;;;;5024153;28;20034;-62
2023/08/22 04:08:26;;;;;;;16.92;9.27;;;;;;;;;;5036216;28;20546;-62
2023/08/22 04:10:52;;;;;;;14.73;8.68;;;;;;;;;;5035679;28;20057;-62
2023/08/22 04:13:18;;;;;;;13.15;8.30;;;;;;;;;;5033200;28;20040;-62
2023/08/22 04:15:44;;;;;;;16.42;9.00;;;;;;;;;;5033930;28;20160;-62
2023/08/22 04:18:10;;;;;;;14.20;8.73;;;;;;;;;;5030429;28;20128;-61
2023/08/22 04:20:37;;;;;;;15.60;8.55;;;;;;;;;;5032042;28;20045;-62
2023/08/22 04:23:03;;;;;;;12.27;8.05;;;;;;;;;;5014086;28;20065;-65
2023/08/22 04:25:29;;;;;;;15.85;8.18;;;;;;;;;;5031788;28;20077;-62
2023/08/22 04:27:55;;;;;;;13.27;8.43;;;;;;;;;;5029009;28;20080;-62
2023/08/22 04:30:21;;;;;;;11.45;7.85;;;;;;;;;;5042176;28;20060;-62
2023/08/22 04:32:47;;;;;;;14.30;8.80;;;;;;;;;;5033650;28;20045;-62
2023/08/22 04:35:14;;;;;;;17.90;10.55;;;;;;;;;;5023993;28;20054;-62
2023/08/22 04:37:40;;;;;;;15.82;9.07;;;;;;;;;;5019501;28;20049;-62
2023/08/22 04:40:06;;;;;;;15.45;9.27;;;;;;;;;;5031143;28;20049;-61
2023/08/22 04:42:32;;;;;;;14.30;9.88;;;;;;;;;;5030670;28;20130;-62
2023/08/22 04:44:58;;;;;;;16.67;8.93;;;;;;;;;;5034086;28;20049;-62
2023/08/22 04:47:24;;;;;;;17.25;9.65;;;;;;;;;;5045708;28;20124;-62
2023/08/22 04:49:50;;;;;;;15.65;9.13;;;;;;;;;;5032993;28;20128;-62
2023/08/22 04:52:16;;;;;;;15.15;9.25;;;;;;;;;;5027704;28;20041;-63
2023/08/22 04:54:42;;;;;;;17.55;9.32;;;;;;;;;;5013946;28;20053;-62
2023/08/22 04:57:08;;;;;;;17.10;9.50;;;;;;;;;;5024890;28;20041;-62
2023/08/22 04:59:34;;;;;;;13.10;9.32;;;;;;;;;;5022524;28;20057;-62
2023/08/22 05:02:00;;;;;;;13.23;9.40;;;;;;;;;;5020860;28;20057;-63
2023/08/22 05:04:26;;;;;;;11.73;8.75;;;;;;;;;;5027458;28;20052;-61
2023/08/22 05:06:52;;;;;;;15.18;9.27;;;;;;;;;;5031615;28;20042;-61
2023/08/22 05:09:18;;;;;;;14.10;9.18;;;;;;;;;;5009974;28;20080;-61
2023/08/22 05:11:45;;;;;;;11.38;8.35;;;;;;;;;;5031724;28;20045;-62
2023/08/22 05:14:14;;;;;;;14.32;9.25;;;;;;;;;;5028780;28;20045;-66
2023/08/22 05:16:40;;;;;;;19.55;10.45;;;;;;;;;;5015601;28;20060;-67
2023/08/22 05:19:06;;;;;;;17.30;10.45;;;;;;;;;;5037160;28;20045;-66
2023/08/22 05:21:32;;;;;;;15.75;10.07;;;;;;;;;;5030558;28;20052;-66
2023/08/22 05:23:58;;;;;;;14.40;10.25;;;;;;;;;;5029128;28;20556;-66
2023/08/22 05:26:24;;;;;;;14.77;10.48;;;;;;;;;;5031284;28;20406;-66
2023/08/22 05:28:50;;;;;;;14.93;10.25;;;;;;;;;;5029795;28;20055;-65
2023/08/22 05:31:23;;;;;;;15.57;9.80;;;;;;;;;;5031727;28;20712;-67
2023/08/22 05:33:49;;;;;;;16.42;9.35;;;;;;;;;;5010074;28;20181;-68
2023/08/22 05:36:15;;;;;;;13.55;9.85;;;;;;;;;;5029091;28;20045;-65
2023/08/22 05:38:42;;;;;;;17.10;10.50;;;;;;;;;;5087462;22;20072;-65
2023/08/22 05:41:08;;;;;;;17.00;11.52;;;;;;;;;;5029819;28;20616;-66
2023/08/22 05:43:35;;;;;;;14.23;9.35;;;;;;;;;;5013567;28;20131;-62
2023/08/22 05:46:02;;;;;;;16.83;10.48;;;;;;;;;;5026912;28;20054;-64
2023/08/22 05:48:28;;;;;;;16.90;10.40;;;;;;;;;;5011821;28;20529;-61
2023/08/22 05:50:56;;;;;;;15.68;10.15;;;;;;;;;;5011563;28;20056;-62
2023/08/22 05:53:24;;;;;;;16.88;9.60;;;;;;;;;;5030489;28;20220;-64
2023/08/22 05:55:50;;;;;;;13.25;8.70;;;;;;;;;;5039032;28;20112;-66
2023/08/22 05:58:16;;;;;;;14.65;9.45;;;;;;;;;;5041591;28;20033;-62
2023/08/22 06:00:43;;;;;;;15.38;9.02;;;;;;;;;;5021121;28;20500;-64
2023/08/22 06:03:09;;;;;;;15.57;8.57;;;;;;;;;;5029856;28;20045;-65
2023/08/22 06:05:35;;;;;;;18.70;9.27;;;;;;;;;;5030960;28;20084;-68
2023/08/22 06:08:01;;;;;;;14.80;8.88;;;;;;;;;;5042231;28;20045;-67
2023/08/22 06:10:27;;;;;;;14.20;9.30;;;;;;;;;;5050620;28;20123;-66
2023/08/22 06:12:53;;;;;;;15.65;9.43;;;;;;;;;;5037399;28;20049;-66
2023/08/22 06:15:19;;;;;;;17.85;9.32;;;;;;;;;;5031055;28;20465;-64
2023/08/22 06:17:45;;;;;;;21.55;13.02;;;;;;;;;;5040342;28;20036;-61
2023/08/22 06:20:12;;;;;;;21.92;14.35;;;;;;;;;;5049167;28;20484;-64
2023/08/22 06:22:38;;;;;;;25.83;18.25;;;;;;;;;;5030857;28;20410;-65
2023/08/22 06:25:07;;;;;;;32.40;19.40;;;;;;;;;;5033688;28;20048;-63
2023/08/22 06:27:33;;;;;;;30.60;19.92;;;;;;;;;;5037140;28;20033;-64
2023/08/22 06:30:00;;;;;;;30.95;19.42;;;;;;;;;;5046905;28;20120;-62
2023/08/22 06:32:26;;;;;;;29.92;19.45;;;;;;;;;;5016323;28;20493;-63
2023/08/22 06:34:55;;;;;;;26.73;17.80;;;;;;;;;;5035725;28;20046;-63
2023/08/22 06:37:23;;;;;;;26.02;15.32;;;;;;;;;;5032727;28;20049;-68
2023/08/22 06:39:49;;;;;;;25.13;14.80;;;;;;;;;;5016054;28;20115;-67
2023/08/22 06:42:15;;;;;;;21.80;10.73;;;;;;;;;;5016923;28;20057;-70
2023/08/22 06:44:41;;;;;;;19.15;10.75;;;;;;;;;;5033477;28;20042;-71
2023/08/22 06:47:07;;;;;;;15.18;8.23;;;;;;;;;;5032026;28;20041;-68
2023/08/22 06:49:33;;;;;;;13.05;8.82;;;19.70;99.90;;;;;;5035391;28;20508;-67
2023/08/22 06:52:01;;;;;;;10.75;7.38;;;20.00;99.90;;;;;;5049347;28;20037;-67
2023/08/22 06:54:27;;;;;;;13.13;6.88;;;;;;;;;;5028923;28;20140;-65
2023/08/22 06:56:53;;;;;;;14.32;6.43;;;;;;;;;;5016650;28;20040;-68
2023/08/22 06:59:22;;;;;;;11.55;7.03;;;;;;;;;;5024570;28;20045;-67
2023/08/22 07:01:48;;;;;;;14.05;6.78;;;;;;;;;;5033803;28;20039;-68
2023/08/22 07:04:14;;;;;;;13.32;7.80;;;;;;;;;;5033882;28;20056;-65
2023/08/22 07:06:40;;;;;;;9.93;6.07;;;;;;;;;;5034551;28;20121;-67
2023/08/22 07:09:09;;;;;;;10.80;6.05;;;;;;;;;;5039583;28;20494;-63
2023/08/22 07:11:35;;;;;;;11.85;6.78;;;;;;;;;;5034346;28;20472;-64
2023/08/22 07:14:00;;;;;;;9.13;6.00;;;20.90;99.90;;;;;;5033182;28;20117;-64
2023/08/22 07:16:26;;;;;;;10.65;5.75;;;21.30;99.90;;;;;;5031286;28;20125;-64
2023/08/22 07:18:52;;;;;;;11.65;6.63;;;;;;;;;;5032660;28;20069;-62
2023/08/22 07:21:18;;;;;;;11.15;5.65;;;21.60;99.90;;;;;;5041519;28;20060;-68
2023/08/22 07:23:43;;;;;;;11.35;6.03;;;21.60;99.90;;;;;;5033644;28;20037;-71
2023/08/22 07:26:09;;;;;;;12.05;5.80;;;;;;;;;;5034643;28;20041;-67
2023/08/22 07:28:35;;;;;;;12.50;5.70;;;21.70;99.90;;;;;;5015338;28;20084;-68
2023/08/22 07:31:03;;;;;;;15.82;8.32;;;21.50;99.90;;;;;;5040055;28;20072;-65
2023/08/22 07:33:29;;;;;;;10.85;6.53;;;21.80;99.90;;;;;;5037974;28;20044;-67
2023/08/22 07:35:55;;;;;;;11.25;5.53;;;21.80;99.90;;;;;;5042757;28;20048;-66
2023/08/22 07:38:21;;;;;;;8.50;5.35;;;;;;;;;;5052270;28;20363;-66
2023/08/22 07:40:47;;;;;;;9.88;5.50;;;;;;;;;;5033704;28;20057;-71
2023/08/22 07:43:13;;;;;;;13.90;5.82;;;;;;;;;;5033421;28;20094;-69
2023/08/22 07:45:39;;;;;;;13.68;6.38;;;;;;;;;;5033572;28;20053;-66
2023/08/22 07:48:06;;;;;;;15.52;7.70;;;21.90;99.90;;;;;;5034381;28;20045;-68
2023/08/22 07:50:32;;;;;;;12.98;5.75;;;21.80;99.90;;;;;;5033150;28;20041;-64
2023/08/22 07:52:58;;;;;;;14.57;6.18;;;;;;;;;;5033174;28;20129;-67
2023/08/22 07:55:25;;;;;;;15.50;6.05;;;;;;;;;;5035759;28;20112;-70
2023/08/22 07:57:52;;;;;;;12.65;6.20;;;;;;;;;;5051509;28;20120;-67
2023/08/22 08:00:18;;;;;;;14.80;6.05;;;22.10;99.90;;;;;;5037563;28;20619;-65
2023/08/22 08:02:45;;;;;;;11.73;5.85;;;22.00;99.90;;;;;;5033325;28;20052;-66
2023/08/22 08:05:12;;;;;;;9.32;5.93;;;;;;;;;;5030678;28;20058;-67
2023/08/22 08:07:38;;;;;;;11.65;6.18;;;22.20;99.90;;;;;;5016095;28;20091;-67
2023/08/22 08:10:04;;;;;;;11.00;5.90;;;22.10;99.90;;;;;;5029816;28;20049;-67
2023/08/22 08:12:30;;;;;;;9.30;5.65;;;22.30;99.90;;;;;;5033946;28;20084;-67
2023/08/22 08:14:59;;;;;;;8.35;5.30;;;;;;;;;;5029849;28;20041;-66
2023/08/22 08:17:27;;;;;;;13.50;5.40;;;;;;;;;;5035691;28;20097;-70
2023/08/22 08:19:53;;;;;;;10.35;5.55;;;22.40;99.90;;;;;;5052851;28;20048;-68
2023/08/22 08:22:18;;;;;;;7.65;4.93;;;22.40;99.90;;;;;;5053512;28;20036;-69
2023/08/22 08:24:44;;;;;;;10.68;4.68;;;;;;;;;;5044688;28;20070;-68
2023/08/22 08:27:10;;;;;;;7.50;4.47;;;;;;;;;;5031049;28;20053;-68
2023/08/22 08:29:36;;;;;;;9.25;4.88;;;;;;;;;;5032260;28;20042;-67
2023/08/22 08:32:03;;;;;;;11.80;4.72;;;22.60;99.90;;;;;;5032367;28;20048;-66
2023/08/22 08:34:28;;;;;;;8.32;4.75;;;22.70;99.90;;;;;;5032762;28;20159;-65
2023/08/22 08:36:57;;;;;;;10.35;5.10;;;22.50;99.90;;;;;;5047357;28;20512;-72
2023/08/22 08:39:23;;;;;;;8.00;4.60;;;;;;;;;;5042752;28;20132;-71
2023/08/22 08:41:52;;;;;;;11.40;5.00;;;22.30;99.90;;;;;;5031979;28;20041;-68
2023/08/22 08:44:18;;;;;;;9.68;4.32;;;22.90;99.90;;;;;;5029455;28;20037;-68
2023/08/22 08:46:44;;;;;;;8.63;4.38;;;22.60;99.90;;;;;;5032332;28;20049;-68
2023/08/22 08:49:11;;;;;;;8.35;4.03;;;23.00;99.90;;;;;;5015581;28;20041;-65
2023/08/22 08:51:38;;;;;;;10.63;4.85;;;23.00;99.90;;;;;;5032596;28;20045;-64
2023/08/22 08:54:04;;;;;;;9.70;3.70;;;23.10;99.90;;;;;;5030114;28;20485;-68
2023/08/22 08:56:30;;;;;;;11.73;3.25;;;23.20;99.90;;;;;;5034376;28;20060;-63
2023/08/22 08:58:56;;;;;;;7.10;2.83;;;23.40;99.90;;;;;;5035565;28;20722;-70
2023/08/22 09:01:25;;;;;;;7.07;2.90;;;23.40;99.90;;;;;;5032743;28;20084;-67
2023/08/22 09:03:51;;;;;;;6.13;2.85;;;23.30;99.90;;;;;;5030261;28;20481;-69
2023/08/22 09:06:20;;;;;;;4.28;2.25;;;23.00;99.90;;;;;;5044912;28;20056;-63
2023/08/22 09:09:08;;;;;;;7.53;2.35;;;23.30;99.90;;;;;;5031254;28;20049;-62
2023/08/22 09:11:34;;;;;;;7.15;2.15;;;23.40;99.90;;;;;;5030371;28;20053;-67
2023/08/22 09:14:00;;;;;;;5.90;2.00;;;23.40;99.90;;;;;;5016584;28;20140;-65
2023/08/22 09:16:30;;;;;;;6.35;2.35;;;23.50;99.90;;;;;;5038463;28;20128;-62
2023/08/22 09:19:02;;;;;;;5.22;2.03;;;23.90;99.90;;;;;;5029168;28;20040;-63
2023/08/22 09:21:28;;;;;;;7.72;2.40;;;24.50;99.90;;;;;;5046909;28;20045;-64
2023/08/22 09:24:05;;;;;;;11.05;2.20;;;24.80;99.90;;;;;;5024830;28;20052;-63
2023/08/22 09:26:31;;;;;;;7.25;2.95;;;25.50;99.90;;;;;;5029853;28;20400;-64
2023/08/22 09:29:03;;;;;;;14.23;3.90;;;25.20;99.90;;;;;;5030851;28;20049;-62
2023/08/22 09:31:28;;;;;;;7.47;3.08;;;25.00;99.90;;;;;;5033201;28;20045;-65
2023/08/22 09:33:54;;;;;;;7.90;3.05;;;25.00;99.90;;;;;;5035150;28;20148;-62
2023/08/22 09:36:21;;;;;;;8.35;3.28;;;24.80;99.90;;;;;;5031472;28;20099;-63
2023/08/22 09:39:05;;;;;;;8.10;3.38;;;24.60;99.90;;;;;;5035971;28;20120;-63
2023/08/22 09:41:31;;;;;;;6.45;2.42;;;24.70;99.90;;;;;;5013885;28;20037;-64
2023/08/22 09:44:05;;;;;;;6.90;2.45;;;24.70;99.90;;;;;;5031885;28;20049;-63
2023/08/22 09:46:31;;;;;;;6.25;2.45;;;24.50;99.90;;;;;;5030223;28;20041;-61
2023/08/22 09:49:00;;;;;;;7.22;2.30;;;24.50;99.90;;;;;;5031708;28;20044;-63
2023/08/22 09:51:26;;;;;;;7.75;2.40;;;24.40;99.90;;;;;;5014671;28;20084;-60
2023/08/22 09:53:59;;;;;;;8.27;2.83;;;24.70;99.90;;;;;;5027766;28;20041;-63
2023/08/22 09:56:26;;;;;;;7.47;2.70;;;24.70;99.90;;;;;;5015876;28;20576;-63
2023/08/22 09:58:52;;;;;;;7.10;2.00;;;24.70;99.90;;;;;;5011457;28;20080;-66
2023/08/22 10:01:20;;;;;;;6.35;2.00;;;24.40;99.90;;;;;;5012500;28;20061;-70
2023/08/22 10:03:53;;;;;;;6.90;2.15;;;24.40;99.90;;;;;;5012788;28;20048;-72
2023/08/22 10:06:26;;;;;;;7.97;2.35;;;24.50;99.90;;;;;;5028235;28;20049;-72
2023/08/22 10:08:52;;;;;;;8.57;3.10;;;24.80;99.90;;;;;;5038356;28;20153;-70
2023/08/22 10:11:18;;;;;;;6.18;2.15;;;25.30;99.90;;;;;;5028771;28;20037;-70
2023/08/22 10:13:45;;;;;;;10.20;2.13;;;24.90;99.90;;;;;;5031853;28;20133;-66
2023/08/22 10:16:17;;;;;;;6.63;2.28;;;25.30;99.90;;;;;;5030535;28;20077;-67
2023/08/22 10:18:44;;;;;;;6.10;2.38;;;25.00;99.90;;;;;;5032034;28;20049;-64
2023/08/22 10:21:09;;;;;;;6.07;2.00;;;24.60;99.90;;;;;;5029699;28;20033;-66
2023/08/22 10:23:53;;;;;;;8.00;2.00;;;24.50;99.90;;;;;;5032754;28;20478;-62
2023/08/22 10:26:20;;;;;;;9.55;3.80;;;24.80;99.90;;;;;;5029419;28;20045;-68
2023/08/22 10:29:12;;;;;;;7.43;2.65;;;24.70;99.90;;;;;;5029979;28;20160;-61
2023/08/22 10:32:00;;;;;;;8.85;2.20;;;25.00;99.90;;;;;;5028350;28;20076;-62
2023/08/22 10:34:49;;;;;;;7.25;2.35;;;25.00;99.90;;;;;;5034110;28;20053;-65
2023/08/22 10:37:25;;;;;;;7.30;2.60;;;24.70;99.90;;;;;;5030464;28;20385;-68
2023/08/22 10:39:50;;;;;;;6.38;2.55;;;24.60;99.90;;;;;;5030728;28;20050;-63
2023/08/22 10:42:21;;;;;;;7.60;2.63;;;24.60;99.90;;;;;;5028046;28;20061;-66
2023/08/22 10:44:58;;;;;;;8.52;2.10;;;24.50;99.90;;;;;;5027329;28;20042;-63
2023/08/22 10:47:32;;;;;;;5.85;2.58;;;24.50;99.90;;;;;;5030521;28;20056;-64
2023/08/22 10:50:00;;;;;;;9.20;2.80;;;24.60;99.90;;;;;;5030423;28;20029;-62
2023/08/22 10:52:36;;;;;;;9.85;3.00;;;24.20;99.90;;;;;;5028581;28;20573;-63
2023/08/22 10:55:14;;;;;;;6.13;2.83;;;24.70;99.90;;;;;;5036485;28;20135;-67
2023/08/22 10:57:47;;;;;;;8.15;3.22;;;25.10;99.90;;;;;;5041341;28;20134;-62
2023/08/22 11:00:21;;;;;;;5.50;2.85;;;25.20;99.90;;;;;;5050292;28;20136;-63
2023/08/22 11:02:57;;;;;;;6.40;3.63;;;25.40;99.90;;;;;;5031151;28;20469;-62
2023/08/22 11:05:29;;;;;;;9.93;4.30;;;25.40;99.90;;;;;;5041833;28;20044;-62
2023/08/22 11:07:55;;;;;;;8.65;3.92;;;;;;;;;;5031509;28;20042;-62
2023/08/22 11:10:23;;;;;;;7.18;3.50;;;25.60;99.90;;;;;;5045742;28;20514;-62
2023/08/22 11:12:55;;;;;;;10.23;3.05;;;25.50;99.90;;;;;;5038044;28;20041;-63
2023/08/22 11:15:22;;;;;;;8.55;2.88;;;25.60;99.90;;;;;;5033964;28;20057;-62
2023/08/22 11:17:51;;;;;;;7.22;2.80;;;25.60;99.90;;;;;;5041166;28;20038;-62
2023/08/22 11:20:20;;;;;;;7.18;2.70;;;25.70;99.90;;;;;;5034119;28;20477;-63
2023/08/22 11:22:46;;;;;;;9.77;3.27;;;25.70;99.90;;;;;;5041542;28;20049;-64
2023/08/22 11:25:12;;;;;;;12.65;3.50;;;25.70;99.90;;;;;;5034625;28;20041;-64
2023/08/22 11:27:41;;;;;;;9.30;3.10;;;25.80;99.90;;;;;;5043972;28;20041;-62
2023/08/22 11:30:08;;;;;;;9.15;3.72;;;25.90;99.90;;;;;;5053169;28;20114;-63
2023/08/22 11:32:38;;;;;;;7.13;2.55;;;25.90;99.90;;;;;;5039801;28;20396;-64
2023/08/22 11:35:06;;;;;;;8.35;3.13;;;26.00;99.90;;;;;;5032711;28;20064;-64
2023/08/22 11:37:40;;;;;;;5.55;2.67;;;25.80;99.90;;;;;;5043809;28;20486;-64
2023/08/22 11:40:14;;;;;;;10.57;3.08;;;26.00;99.90;;;;;;5054075;28;20060;-63
2023/08/22 11:42:40;;;;;;;9.48;3.40;;;25.80;99.90;;;;;;5041065;28;20041;-64
2023/08/22 11:45:08;;;;;;;9.07;2.97;;;26.00;99.90;;;;;;5019307;28;20068;-61
2023/08/22 11:47:42;;;;;;;7.40;2.58;;;26.00;99.90;;;;;;5033229;28;20038;-59
2023/08/22 11:50:15;;;;;;;8.07;2.92;;;26.20;99.90;;;;;;5032684;28;20041;-60
2023/08/22 11:52:42;;;;;;;6.30;2.60;;;26.30;99.90;;;;;;5047540;28;20065;-59
2023/08/22 11:55:10;;;;;;;7.38;2.70;;;26.40;99.90;;;;;;5042441;28;20045;-63
2023/08/22 11:57:38;;;;;;;7.60;2.13;;;26.20;99.90;;;;;;5049275;28;20082;-61
2023/08/22 12:00:06;;;;;;;9.15;2.80;;;26.10;99.90;;;;;;5039348;28;20057;-62
2023/08/22 12:02:32;;;;;;;5.25;2.38;;;26.30;99.90;;;;;;5032501;28;20052;-63
2023/08/22 12:04:58;;;;;;;7.72;2.35;;;26.30;99.90;;;;;;5043871;28;20450;-61
2023/08/22 12:07:24;;;;;;;8.25;2.30;;;26.30;99.90;;;;;;5032039;28;20141;-62
2023/08/22 12:09:58;;;;;;;6.43;2.35;;;26.30;99.90;;;;;;5025219;28;20048;-62
2023/08/22 12:12:24;;;;;;;6.50;2.42;;;26.40;99.90;;;;;;5032661;28;20033;-63
2023/08/22 12:14:50;;;;;;;6.57;2.17;;;26.30;99.90;;;;;;5035594;28;20419;-60
2023/08/22 12:17:16;;;;;;;7.80;3.30;;;26.40;99.90;;;;;;5046854;28;20053;-61
2023/08/22 12:19:45;;;;;;;8.77;2.90;;;26.60;99.90;;;;;;5032151;28;20041;-61
2023/08/22 12:22:11;;;;;;;7.75;2.35;;;26.50;99.90;;;;;;5033388;28;20069;-60
2023/08/22 12:24:37;;;;;;;9.23;2.78;;;;;;;;;;5033244;28;20103;-61
2023/08/22 12:27:03;;;;;;;9.40;2.63;;;;;;;;;;5031874;28;20044;-61
2023/08/22 12:29:29;;;;;;;7.97;1.67;;;;;;;;;;5030332;28;20053;-60
2023/08/22 12:31:55;;;;;;;5.90;2.25;;;;;;;;;;5034790;28;20375;-59
2023/08/22 12:34:22;;;;;;;10.80;2.50;;;;;;;;;;5037211;28;20409;-61
2023/08/22 12:36:48;;;;;;;8.65;2.17;;;;;;;;;;5030365;28;20048;-60
2023/08/22 12:39:14;;;;;;;6.45;2.30;;;;;;;;;;5031199;28;20068;-62
2023/08/22 12:41:40;;;;;;;7.53;2.83;;;;;;;;;;5035238;28;20045;-63
2023/08/22 12:44:06;;;;;;;7.78;2.75;;;26.40;99.90;;;;;;5049969;28;20048;-60
2023/08/22 12:46:31;;;;;;;6.20;2.40;;;26.40;99.90;;;;;;5052911;28;20103;-61
2023/08/22 12:48:58;;;;;;;7.57;2.63;;;;;;;;;;5032141;28;20061;-63
2023/08/22 12:51:23;;;;;;;11.45;3.35;;;26.00;99.90;;;;;;5033082;28;20052;-64
2023/08/22 12:53:52;;;;;;;8.13;2.25;;;26.10;99.90;;;;;;5038849;28;20041;-67
2023/08/22 12:56:18;;;;;;;6.63;3.45;;;26.30;99.90;;;;;;5040685;28;20545;-58
2023/08/22 12:58:44;;;;;;;8.70;2.65;;;;;;;;;;5032560;28;20034;-56
2023/08/22 13:01:10;;;;;;;8.52;2.92;;;26.40;99.90;;;;;;5032607;28;20103;-56
2023/08/22 13:03:36;;;;;;;9.25;2.80;;;26.40;99.90;;;;;;5031852;28;20431;-56
2023/08/22 13:06:02;;;;;;;7.45;2.92;;;;;;;;;;5031385;28;20046;-56
2023/08/22 13:08:28;;;;;;;11.30;2.95;;;26.30;99.90;;;;;;5037573;28;20447;-56
2023/08/22 13:10:56;;;;;;;20.33;5.03;;;26.40;99.90;;;;;;5039970;28;20508;-56
2023/08/22 13:13:22;;;;;;;9.55;3.30;;;26.30;99.90;;;;;;5033472;28;20464;-56
2023/08/22 13:15:48;;;;;;;9.35;4.18;;;26.00;99.90;;;;;;5047851;28;20045;-57
2023/08/22 13:18:15;;;;;;;11.18;4.18;;;;;;;;;;5031229;28;20112;-59
2023/08/22 13:20:42;;;;;;;11.95;4.15;;;;;;;;;;5033975;28;20184;-56
2023/08/22 13:23:07;;;;;;;15.10;3.95;;;26.00;99.90;;;;;;5052273;28;20057;-58
2023/08/22 13:25:34;;;;;;;9.65;4.20;;;;;;;;;;5037276;28;20038;-57
2023/08/22 13:28:03;;;;;;;13.40;4.35;;;;;;;;;;5047255;28;20049;-57
2023/08/22 13:30:28;;;;;;;15.70;4.45;;;26.00;99.90;;;;;;5042064;28;20046;-57
2023/08/22 13:32:54;;;;;;;7.25;3.75;;;25.80;99.90;;;;;;5049240;28;20087;-57
2023/08/22 13:35:21;;;;;;;7.00;2.85;;;;;;;;;;5031424;28;20513;-57
2023/08/22 13:37:47;;;;;;;7.78;3.28;;;;;;;;;;5032266;28;20048;-57
2023/08/22 13:40:13;;;;;;;7.32;3.38;;;;;;;;;;5040040;28;20061;-58
2023/08/22 13:42:39;;;;;;;11.43;4.47;;;26.20;99.90;;;;;;5032465;28;20095;-58
2023/08/22 13:45:10;;;;;;;7.07;3.00;;;25.90;99.90;;;;;;5031410;28;20041;-58
2023/08/22 13:47:38;;;;;;;8.77;4.10;;;25.90;99.90;;;;;;5030929;28;20037;-58